Terminal Aerodrome Forecast
Issued by NWS

Home | Current Version | Previous Version | Text Only | Print | Product List | Glossary On
Versions: 1 2 3 4 5 6 7 8 9 10 11
000
FTAK31 PAJN 272300
TAFAKT
TAF
PAKT 272323Z 2800/2824 33013KT P6SM BKN035
     FM280400 31008KT P6SM SCT040
     FM280800 31005KT P6SM FEW005
     FM281800 31011KT P6SM SKC
      AMD LTD TO CLD VIS AND WIND 2806/2815=

USA.gov is the U.S. government's official web portal to all federal, state and local government web resources and services.